sensor_id;sensor_type;location;lat;lon;timestamp;P1;durP1;ratioP1;P2;durP2;ratioP2
5805;SDS011;2929;50.810;8.342;2023-05-16T00:00:23;20.00;;;14.47;;
5805;SDS011;2929;50.810;8.342;2023-05-16T00:02:50;20.13;;;14.10;;
5805;SDS011;2929;50.810;8.342;2023-05-16T00:05:17;21.10;;;14.70;;
5805;SDS011;2929;50.810;8.342;2023-05-16T00:07:45;26.67;;;16.80;;
5805;SDS011;2929;50.810;8.342;2023-05-16T00:10:12;23.57;;;14.83;;
5805;SDS011;2929;50.810;8.342;2023-05-16T00:12:39;21.53;;;14.63;;
5805;SDS011;2929;50.810;8.342;2023-05-16T00:15:10;21.90;;;14.83;;
5805;SDS011;2929;50.810;8.342;2023-05-16T00:17:38;22.37;;;15.47;;
5805;SDS011;2929;50.810;8.342;2023-05-16T00:20:08;25.70;;;16.20;;
5805;SDS011;2929;50.810;8.342;2023-05-16T00:22:36;25.10;;;14.03;;
5805;SDS011;2929;50.810;8.342;2023-05-16T00:25:03;23.30;;;14.43;;
5805;SDS011;2929;50.810;8.342;2023-05-16T00:27:32;24.57;;;16.87;;
5805;SDS011;2929;50.810;8.342;2023-05-16T00:29:59;28.43;;;16.17;;
5805;SDS011;2929;50.810;8.342;2023-05-16T00:32:28;24.23;;;14.40;;
5805;SDS011;2929;50.810;8.342;2023-05-16T00:34:55;21.63;;;15.20;;
5805;SDS011;2929;50.810;8.342;2023-05-16T00:37:22;21.60;;;15.30;;
5805;SDS011;2929;50.810;8.342;2023-05-16T00:39:49;22.10;;;14.53;;
5805;SDS011;2929;50.810;8.342;2023-05-16T00:42:18;23.10;;;14.80;;
5805;SDS011;2929;50.810;8.342;2023-05-16T00:44:45;19.03;;;12.73;;
5805;SDS011;2929;50.810;8.342;2023-05-16T00:47:14;21.73;;;15.77;;
5805;SDS011;2929;50.810;8.342;2023-05-16T00:49:42;24.27;;;15.97;;
5805;SDS011;2929;50.810;8.342;2023-05-16T00:52:09;24.53;;;15.20;;
5805;SDS011;2929;50.810;8.342;2023-05-16T00:54:38;25.83;;;16.10;;
5805;SDS011;2929;50.810;8.342;2023-05-16T00:57:05;25.00;;;15.87;;
5805;SDS011;2929;50.810;8.342;2023-05-16T00:59:32;30.27;;;15.03;;
5805;SDS011;2929;50.810;8.342;2023-05-16T01:02:00;27.70;;;17.00;;
5805;SDS011;2929;50.810;8.342;2023-05-16T01:04:27;23.37;;;15.23;;
5805;SDS011;2929;50.810;8.342;2023-05-16T01:06:57;28.13;;;14.50;;
5805;SDS011;2929;50.810;8.342;2023-05-16T01:09:24;26.37;;;15.90;;
5805;SDS011;2929;50.810;8.342;2023-05-16T01:11:52;25.30;;;16.60;;
5805;SDS011;2929;50.810;8.342;2023-05-16T01:14:28;28.93;;;16.77;;
5805;SDS011;2929;50.810;8.342;2023-05-16T01:17:04;22.93;;;14.93;;
5805;SDS011;2929;50.810;8.342;2023-05-16T01:19:45;28.47;;;16.90;;
5805;SDS011;2929;50.810;8.342;2023-05-16T01:22:30;29.90;;;16.33;;
5805;SDS011;2929;50.810;8.342;2023-05-16T01:25:10;30.93;;;16.50;;
5805;SDS011;2929;50.810;8.342;2023-05-16T01:27:54;31.17;;;17.50;;
5805;SDS011;2929;50.810;8.342;2023-05-16T01:30:24;32.60;;;18.90;;
5805;SDS011;2929;50.810;8.342;2023-05-16T01:32:51;24.97;;;16.30;;
5805;SDS011;2929;50.810;8.342;2023-05-16T01:35:18;30.67;;;17.50;;
5805;SDS011;2929;50.810;8.342;2023-05-16T01:37:48;29.60;;;17.93;;
5805;SDS011;2929;50.810;8.342;2023-05-16T01:40:22;40.83;;;17.87;;
5805;SDS011;2929;50.810;8.342;2023-05-16T01:42:57;31.50;;;18.03;;
5805;SDS011;2929;50.810;8.342;2023-05-16T01:45:31;29.87;;;17.17;;
5805;SDS011;2929;50.810;8.342;2023-05-16T01:48:02;21.93;;;15.40;;
5805;SDS011;2929;50.810;8.342;2023-05-16T01:53:28;23.13;;;15.30;;
5805;SDS011;2929;50.810;8.342;2023-05-16T01:56:01;28.23;;;17.40;;
5805;SDS011;2929;50.810;8.342;2023-05-16T01:58:32;27.37;;;16.87;;
5805;SDS011;2929;50.810;8.342;2023-05-16T02:01:01;26.67;;;16.17;;
5805;SDS011;2929;50.810;8.342;2023-05-16T02:03:29;26.70;;;15.80;;
5805;SDS011;2929;50.810;8.342;2023-05-16T02:05:56;25.63;;;14.43;;
5805;SDS011;2929;50.810;8.342;2023-05-16T02:08:24;24.57;;;15.53;;
5805;SDS011;2929;50.810;8.342;2023-05-16T02:10:51;23.40;;;15.70;;
5805;SDS011;2929;50.810;8.342;2023-05-16T02:13:19;26.43;;;16.33;;
5805;SDS011;2929;50.810;8.342;2023-05-16T02:15:48;25.00;;;14.23;;
5805;SDS011;2929;50.810;8.342;2023-05-16T02:18:15;25.77;;;15.30;;
5805;SDS011;2929;50.810;8.342;2023-05-16T02:20:43;23.33;;;15.10;;
5805;SDS011;2929;50.810;8.342;2023-05-16T02:23:10;19.50;;;13.57;;
5805;SDS011;2929;50.810;8.342;2023-05-16T02:25:37;27.13;;;18.33;;
5805;SDS011;2929;50.810;8.342;2023-05-16T02:28:04;23.57;;;14.70;;
5805;SDS011;2929;50.810;8.342;2023-05-16T02:30:31;22.67;;;16.20;;
5805;SDS011;2929;50.810;8.342;2023-05-16T02:32:59;25.07;;;17.53;;
5805;SDS011;2929;50.810;8.342;2023-05-16T02:35:28;26.80;;;18.20;;
5805;SDS011;2929;50.810;8.342;2023-05-16T02:37:55;33.00;;;17.07;;
5805;SDS011;2929;50.810;8.342;2023-05-16T02:40:23;28.90;;;17.67;;
5805;SDS011;2929;50.810;8.342;2023-05-16T02:42:50;29.30;;;17.90;;
5805;SDS011;2929;50.810;8.342;2023-05-16T02:45:17;24.63;;;16.27;;
5805;SDS011;2929;50.810;8.342;2023-05-16T02:47:45;24.57;;;16.07;;
5805;SDS011;2929;50.810;8.342;2023-05-16T02:50:13;30.37;;;17.80;;
5805;SDS011;2929;50.810;8.342;2023-05-16T02:52:41;17.37;;;10.90;;
5805;SDS011;2929;50.810;8.342;2023-05-16T02:55:08;14.27;;;10.20;;
5805;SDS011;2929;50.810;8.342;2023-05-16T02:57:36;10.43;;;7.70;;
5805;SDS011;2929;50.810;8.342;2023-05-16T03:00:04;9.00;;;6.77;;
5805;SDS011;2929;50.810;8.342;2023-05-16T03:02:34;7.90;;;5.20;;
5805;SDS011;2929;50.810;8.342;2023-05-16T03:05:02;5.40;;;3.30;;
5805;SDS011;2929;50.810;8.342;2023-05-16T03:07:31;3.00;;;2.63;;
5805;SDS011;2929;50.810;8.342;2023-05-16T03:09:58;3.20;;;2.70;;
5805;SDS011;2929;50.810;8.342;2023-05-16T03:12:25;2.00;;;1.80;;
5805;SDS011;2929;50.810;8.342;2023-05-16T03:14:52;3.27;;;2.07;;
5805;SDS011;2929;50.810;8.342;2023-05-16T03:17:23;2.07;;;1.67;;
5805;SDS011;2929;50.810;8.342;2023-05-16T03:19:50;1.70;;;1.60;;
5805;SDS011;2929;50.810;8.342;2023-05-16T03:22:17;2.20;;;2.00;;
5805;SDS011;2929;50.810;8.342;2023-05-16T03:24:45;2.00;;;1.40;;
5805;SDS011;2929;50.810;8.342;2023-05-16T03:27:12;2.80;;;1.60;;
5805;SDS011;2929;50.810;8.342;2023-05-16T03:29:41;1.63;;;1.43;;
5805;SDS011;2929;50.810;8.342;2023-05-16T03:32:09;4.30;;;1.87;;
5805;SDS011;2929;50.810;8.342;2023-05-16T03:34:36;1.80;;;1.70;;
5805;SDS011;2929;50.810;8.342;2023-05-16T03:37:03;1.37;;;1.27;;
5805;SDS011;2929;50.810;8.342;2023-05-16T03:39:31;1.10;;;1.03;;
5805;SDS011;2929;50.810;8.342;2023-05-16T03:41:59;1.00;;;1.00;;
5805;SDS011;2929;50.810;8.342;2023-05-16T03:44:26;3.00;;;1.00;;
5805;SDS011;2929;50.810;8.342;2023-05-16T03:46:53;1.33;;;1.00;;
5805;SDS011;2929;50.810;8.342;2023-05-16T03:49:23;1.10;;;1.00;;
5805;SDS011;2929;50.810;8.342;2023-05-16T03:51:52;1.30;;;1.20;;
5805;SDS011;2929;50.810;8.342;2023-05-16T03:54:22;1.43;;;1.33;;
5805;SDS011;2929;50.810;8.342;2023-05-16T03:56:49;0.97;;;0.90;;
5805;SDS011;2929;50.810;8.342;2023-05-16T03:59:18;0.97;;;0.97;;
5805;SDS011;2929;50.810;8.342;2023-05-16T04:01:45;0.83;;;0.83;;
5805;SDS011;2929;50.810;8.342;2023-05-16T04:04:12;1.50;;;1.00;;
5805;SDS011;2929;50.810;8.342;2023-05-16T04:06:42;1.10;;;1.00;;
5805;SDS011;2929;50.810;8.342;2023-05-16T04:09:09;1.00;;;0.83;;
5805;SDS011;2929;50.810;8.342;2023-05-16T04:11:36;1.00;;;1.00;;
5805;SDS011;2929;50.810;8.342;2023-05-16T04:14:03;0.80;;;0.80;;
5805;SDS011;2929;50.810;8.342;2023-05-16T04:16:32;1.17;;;0.80;;
5805;SDS011;2929;50.810;8.342;2023-05-16T04:18:59;0.90;;;0.90;;
5805;SDS011;2929;50.810;8.342;2023-05-16T04:21:28;0.80;;;0.80;;
5805;SDS011;2929;50.810;8.342;2023-05-16T04:23:55;1.10;;;0.93;;
5805;SDS011;2929;50.810;8.342;2023-05-16T04:26:23;1.30;;;0.90;;
5805;SDS011;2929;50.810;8.342;2023-05-16T04:28:51;1.07;;;1.07;;
5805;SDS011;2929;50.810;8.342;2023-05-16T04:31:18;1.50;;;1.40;;
5805;SDS011;2929;50.810;8.342;2023-05-16T04:33:47;4.23;;;1.17;;
5805;SDS011;2929;50.810;8.342;2023-05-16T04:36:15;2.50;;;1.00;;
5805;SDS011;2929;50.810;8.342;2023-05-16T04:38:42;1.73;;;1.53;;
5805;SDS011;2929;50.810;8.342;2023-05-16T04:41:10;1.40;;;1.30;;
5805;SDS011;2929;50.810;8.342;2023-05-16T04:43:38;1.30;;;1.20;;
5805;SDS011;2929;50.810;8.342;2023-05-16T04:46:06;1.83;;;1.20;;
5805;SDS011;2929;50.810;8.342;2023-05-16T04:48:34;2.10;;;1.23;;
5805;SDS011;2929;50.810;8.342;2023-05-16T04:51:02;1.40;;;1.30;;
5805;SDS011;2929;50.810;8.342;2023-05-16T04:53:30;2.20;;;1.27;;
5805;SDS011;2929;50.810;8.342;2023-05-16T04:55:58;1.67;;;1.13;;
5805;SDS011;2929;50.810;8.342;2023-05-16T04:58:25;1.70;;;1.60;;
5805;SDS011;2929;50.810;8.342;2023-05-16T05:00:52;3.70;;;1.20;;
5805;SDS011;2929;50.810;8.342;2023-05-16T05:03:20;1.30;;;1.20;;
5805;SDS011;2929;50.810;8.342;2023-05-16T05:05:47;1.00;;;0.97;;
5805;SDS011;2929;50.810;8.342;2023-05-16T05:08:17;0.80;;;0.70;;
5805;SDS011;2929;50.810;8.342;2023-05-16T05:10:44;1.43;;;0.80;;
5805;SDS011;2929;50.810;8.342;2023-05-16T05:13:11;0.77;;;0.60;;
5805;SDS011;2929;50.810;8.342;2023-05-16T05:15:38;0.87;;;0.60;;
5805;SDS011;2929;50.810;8.342;2023-05-16T05:18:05;5.50;;;0.80;;
5805;SDS011;2929;50.810;8.342;2023-05-16T05:20:32;0.50;;;0.50;;
5805;SDS011;2929;50.810;8.342;2023-05-16T05:22:59;0.50;;;0.50;;
5805;SDS011;2929;50.810;8.342;2023-05-16T05:25:27;1.03;;;0.73;;
5805;SDS011;2929;50.810;8.342;2023-05-16T05:27:54;1.00;;;0.80;;
5805;SDS011;2929;50.810;8.342;2023-05-16T05:30:22;0.60;;;0.60;;
5805;SDS011;2929;50.810;8.342;2023-05-16T05:32:49;0.70;;;0.70;;
5805;SDS011;2929;50.810;8.342;2023-05-16T05:35:17;10.83;;;1.30;;
5805;SDS011;2929;50.810;8.342;2023-05-16T05:37:44;0.83;;;0.83;;
5805;SDS011;2929;50.810;8.342;2023-05-16T05:40:13;2.93;;;0.90;;
5805;SDS011;2929;50.810;8.342;2023-05-16T05:42:42;0.60;;;0.60;;
5805;SDS011;2929;50.810;8.342;2023-05-16T05:45:09;1.23;;;1.00;;
5805;SDS011;2929;50.810;8.342;2023-05-16T05:47:36;2.83;;;2.27;;
5805;SDS011;2929;50.810;8.342;2023-05-16T05:50:04;2.83;;;1.00;;
5805;SDS011;2929;50.810;8.342;2023-05-16T05:52:32;3.17;;;1.13;;
5805;SDS011;2929;50.810;8.342;2023-05-16T05:54:59;3.87;;;1.87;;
5805;SDS011;2929;50.810;8.342;2023-05-16T05:57:26;6.40;;;2.10;;
5805;SDS011;2929;50.810;8.342;2023-05-16T05:59:55;6.73;;;1.80;;
5805;SDS011;2929;50.810;8.342;2023-05-16T06:02:22;5.33;;;2.20;;
5805;SDS011;2929;50.810;8.342;2023-05-16T06:04:49;6.43;;;1.77;;
5805;SDS011;2929;50.810;8.342;2023-05-16T06:07:16;3.90;;;1.70;;
5805;SDS011;2929;50.810;8.342;2023-05-16T06:09:43;2.50;;;1.20;;
5805;SDS011;2929;50.810;8.342;2023-05-16T06:12:11;3.90;;;1.83;;
5805;SDS011;2929;50.810;8.342;2023-05-16T06:14:38;2.67;;;2.03;;
5805;SDS011;2929;50.810;8.342;2023-05-16T06:17:06;13.30;;;4.20;;
5805;SDS011;2929;50.810;8.342;2023-05-16T06:19:33;18.70;;;6.67;;
5805;SDS011;2929;50.810;8.342;2023-05-16T06:22:00;8.20;;;2.30;;
5805;SDS011;2929;50.810;8.342;2023-05-16T06:24:27;2.20;;;1.87;;
5805;SDS011;2929;50.810;8.342;2023-05-16T06:26:54;2.63;;;1.30;;
5805;SDS011;2929;50.810;8.342;2023-05-16T06:29:22;3.63;;;1.57;;
5805;SDS011;2929;50.810;8.342;2023-05-16T06:31:49;3.47;;;1.43;;
5805;SDS011;2929;50.810;8.342;2023-05-16T06:34:17;6.23;;;1.90;;
5805;SDS011;2929;50.810;8.342;2023-05-16T06:36:48;2.60;;;1.53;;
5805;SDS011;2929;50.810;8.342;2023-05-16T06:39:15;1.83;;;1.73;;
5805;SDS011;2929;50.810;8.342;2023-05-16T06:41:42;6.17;;;1.37;;
5805;SDS011;2929;50.810;8.342;2023-05-16T06:44:14;3.07;;;1.90;;
5805;SDS011;2929;50.810;8.342;2023-05-16T06:46:41;4.33;;;2.23;;
5805;SDS011;2929;50.810;8.342;2023-05-16T06:49:08;4.67;;;2.07;;
5805;SDS011;2929;50.810;8.342;2023-05-16T06:51:37;2.50;;;1.33;;
5805;SDS011;2929;50.810;8.342;2023-05-16T06:54:04;3.00;;;1.70;;
5805;SDS011;2929;50.810;8.342;2023-05-16T06:56:31;5.07;;;1.60;;
5805;SDS011;2929;50.810;8.342;2023-05-16T06:58:58;2.47;;;1.40;;
5805;SDS011;2929;50.810;8.342;2023-05-16T07:01:26;8.57;;;2.10;;
5805;SDS011;2929;50.810;8.342;2023-05-16T07:03:53;3.30;;;1.97;;
5805;SDS011;2929;50.810;8.342;2023-05-16T07:06:21;4.30;;;1.60;;
5805;SDS011;2929;50.810;8.342;2023-05-16T07:08:50;6.80;;;1.87;;
5805;SDS011;2929;50.810;8.342;2023-05-16T07:11:17;6.37;;;1.67;;
5805;SDS011;2929;50.810;8.342;2023-05-16T07:13:44;3.30;;;1.80;;
5805;SDS011;2929;50.810;8.342;2023-05-16T07:16:11;5.97;;;1.80;;
5805;SDS011;2929;50.810;8.342;2023-05-16T07:18:38;6.40;;;3.03;;
5805;SDS011;2929;50.810;8.342;2023-05-16T07:21:05;9.43;;;4.93;;
5805;SDS011;2929;50.810;8.342;2023-05-16T07:23:32;7.83;;;1.70;;
5805;SDS011;2929;50.810;8.342;2023-05-16T07:26:00;4.70;;;1.57;;
5805;SDS011;2929;50.810;8.342;2023-05-16T07:28:28;9.63;;;1.77;;
5805;SDS011;2929;50.810;8.342;2023-05-16T07:30:55;8.77;;;1.80;;
5805;SDS011;2929;50.810;8.342;2023-05-16T07:33:23;5.50;;;1.90;;
5805;SDS011;2929;50.810;8.342;2023-05-16T07:35:51;13.47;;;2.10;;
5805;SDS011;2929;50.810;8.342;2023-05-16T07:38:19;6.33;;;2.10;;
5805;SDS011;2929;50.810;8.342;2023-05-16T07:40:46;13.60;;;3.00;;
5805;SDS011;2929;50.810;8.342;2023-05-16T07:43:15;6.70;;;2.20;;
5805;SDS011;2929;50.810;8.342;2023-05-16T07:45:42;5.43;;;2.60;;
5805;SDS011;2929;50.810;8.342;2023-05-16T07:48:09;25.67;;;2.90;;
5805;SDS011;2929;50.810;8.342;2023-05-16T07:50:36;15.17;;;2.40;;
5805;SDS011;2929;50.810;8.342;2023-05-16T07:53:03;12.87;;;2.03;;
5805;SDS011;2929;50.810;8.342;2023-05-16T07:55:30;7.03;;;2.10;;
5805;SDS011;2929;50.810;8.342;2023-05-16T07:57:57;11.30;;;2.20;;
5805;SDS011;2929;50.810;8.342;2023-05-16T08:00:26;9.10;;;2.30;;
5805;SDS011;2929;50.810;8.342;2023-05-16T08:02:53;6.40;;;2.03;;
5805;SDS011;2929;50.810;8.342;2023-05-16T08:05:20;8.17;;;2.00;;
5805;SDS011;2929;50.810;8.342;2023-05-16T08:07:48;5.73;;;1.80;;
5805;SDS011;2929;50.810;8.342;2023-05-16T08:10:15;9.70;;;1.97;;
5805;SDS011;2929;50.810;8.342;2023-05-16T08:12:42;11.77;;;2.60;;
5805;SDS011;2929;50.810;8.342;2023-05-16T08:15:10;11.17;;;2.20;;
5805;SDS011;2929;50.810;8.342;2023-05-16T08:17:38;9.03;;;2.63;;
5805;SDS011;2929;50.810;8.342;2023-05-16T08:20:06;9.10;;;1.80;;
5805;SDS011;2929;50.810;8.342;2023-05-16T08:22:34;9.57;;;1.80;;
5805;SDS011;2929;50.810;8.342;2023-05-16T08:25:01;7.93;;;1.60;;
5805;SDS011;2929;50.810;8.342;2023-05-16T08:27:28;10.10;;;2.00;;
5805;SDS011;2929;50.810;8.342;2023-05-16T08:29:55;5.20;;;1.50;;
5805;SDS011;2929;50.810;8.342;2023-05-16T08:32:22;6.90;;;2.00;;
5805;SDS011;2929;50.810;8.342;2023-05-16T08:34:51;8.13;;;2.27;;
5805;SDS011;2929;50.810;8.342;2023-05-16T08:37:18;6.70;;;1.63;;
5805;SDS011;2929;50.810;8.342;2023-05-16T08:39:45;6.90;;;1.80;;
5805;SDS011;2929;50.810;8.342;2023-05-16T08:42:12;6.47;;;1.23;;
5805;SDS011;2929;50.810;8.342;2023-05-16T08:44:39;10.50;;;1.53;;
5805;SDS011;2929;50.810;8.342;2023-05-16T08:47:10;7.37;;;1.53;;
5805;SDS011;2929;50.810;8.342;2023-05-16T08:49:39;2.83;;;1.80;;
5805;SDS011;2929;50.810;8.342;2023-05-16T08:52:08;10.50;;;1.90;;
5805;SDS011;2929;50.810;8.342;2023-05-16T08:54:37;5.20;;;1.80;;
5805;SDS011;2929;50.810;8.342;2023-05-16T08:57:06;15.97;;;3.50;;
5805;SDS011;2929;50.810;8.342;2023-05-16T08:59:34;5.93;;;1.30;;
5805;SDS011;2929;50.810;8.342;2023-05-16T09:02:02;6.30;;;1.57;;
5805;SDS011;2929;50.810;8.342;2023-05-16T09:04:30;6.00;;;2.17;;
5805;SDS011;2929;50.810;8.342;2023-05-16T09:06:57;7.73;;;1.50;;
5805;SDS011;2929;50.810;8.342;2023-05-16T09:09:26;7.03;;;2.13;;
5805;SDS011;2929;50.810;8.342;2023-05-16T09:11:54;3.07;;;1.20;;
5805;SDS011;2929;50.810;8.342;2023-05-16T09:14:22;8.20;;;1.60;;
5805;SDS011;2929;50.810;8.342;2023-05-16T09:17:01;12.40;;;1.63;;
5805;SDS011;2929;50.810;8.342;2023-05-16T09:19:32;6.43;;;1.47;;
5805;SDS011;2929;50.810;8.342;2023-05-16T09:22:04;3.90;;;1.57;;
5805;SDS011;2929;50.810;8.342;2023-05-16T09:24:35;8.53;;;1.53;;
5805;SDS011;2929;50.810;8.342;2023-05-16T09:27:08;8.77;;;1.70;;
5805;SDS011;2929;50.810;8.342;2023-05-16T09:29:35;8.53;;;1.30;;
5805;SDS011;2929;50.810;8.342;2023-05-16T09:32:12;4.17;;;1.20;;
5805;SDS011;2929;50.810;8.342;2023-05-16T09:34:42;10.40;;;1.63;;
5805;SDS011;2929;50.810;8.342;2023-05-16T09:37:10;7.00;;;1.20;;
5805;SDS011;2929;50.810;8.342;2023-05-16T09:39:39;5.83;;;1.43;;
5805;SDS011;2929;50.810;8.342;2023-05-16T09:42:12;11.47;;;1.60;;
5805;SDS011;2929;50.810;8.342;2023-05-16T09:44:40;3.37;;;1.17;;
5805;SDS011;2929;50.810;8.342;2023-05-16T09:47:13;7.87;;;2.50;;
5805;SDS011;2929;50.810;8.342;2023-05-16T09:49:40;5.43;;;1.27;;
5805;SDS011;2929;50.810;8.342;2023-05-16T09:52:09;9.53;;;1.57;;
5805;SDS011;2929;50.810;8.342;2023-05-16T09:54:36;5.97;;;1.40;;
5805;SDS011;2929;50.810;8.342;2023-05-16T09:57:04;6.00;;;1.70;;
5805;SDS011;2929;50.810;8.342;2023-05-16T09:59:34;5.60;;;1.43;;
5805;SDS011;2929;50.810;8.342;2023-05-16T10:02:02;4.90;;;1.33;;
5805;SDS011;2929;50.810;8.342;2023-05-16T10:04:31;3.50;;;1.40;;
5805;SDS011;2929;50.810;8.342;2023-05-16T10:07:00;6.43;;;1.60;;
5805;SDS011;2929;50.810;8.342;2023-05-16T10:09:28;2.80;;;1.20;;
5805;SDS011;2929;50.810;8.342;2023-05-16T10:11:59;7.67;;;1.50;;
5805;SDS011;2929;50.810;8.342;2023-05-16T10:14:30;3.40;;;1.63;;
5805;SDS011;2929;50.810;8.342;2023-05-16T10:17:01;5.13;;;1.17;;
5805;SDS011;2929;50.810;8.342;2023-05-16T10:19:30;5.27;;;1.23;;
5805;SDS011;2929;50.810;8.342;2023-05-16T10:21:59;9.33;;;1.83;;
5805;SDS011;2929;50.810;8.342;2023-05-16T10:24:30;7.53;;;1.70;;
5805;SDS011;2929;50.810;8.342;2023-05-16T10:27:04;3.50;;;1.30;;
5805;SDS011;2929;50.810;8.342;2023-05-16T10:29:33;9.63;;;1.83;;
5805;SDS011;2929;50.810;8.342;2023-05-16T10:32:00;5.43;;;1.47;;
5805;SDS011;2929;50.810;8.342;2023-05-16T10:34:30;11.60;;;1.90;;
5805;SDS011;2929;50.810;8.342;2023-05-16T10:36:58;5.47;;;1.53;;
5805;SDS011;2929;50.810;8.342;2023-05-16T10:39:25;6.63;;;1.50;;
5805;SDS011;2929;50.810;8.342;2023-05-16T10:41:55;3.57;;;1.40;;
5805;SDS011;2929;50.810;8.342;2023-05-16T10:44:24;3.20;;;1.23;;
5805;SDS011;2929;50.810;8.342;2023-05-16T10:46:52;7.93;;;2.00;;
5805;SDS011;2929;50.810;8.342;2023-05-16T10:49:20;6.47;;;1.30;;
5805;SDS011;2929;50.810;8.342;2023-05-16T10:52:05;7.80;;;1.17;;
5805;SDS011;2929;50.810;8.342;2023-05-16T10:54:36;4.00;;;1.50;;
5805;SDS011;2929;50.810;8.342;2023-05-16T10:57:08;5.20;;;1.30;;
5805;SDS011;2929;50.810;8.342;2023-05-16T10:59:40;7.10;;;1.33;;
5805;SDS011;2929;50.810;8.342;2023-05-16T11:02:23;3.83;;;1.20;;
5805;SDS011;2929;50.810;8.342;2023-05-16T11:04:54;7.70;;;2.00;;
5805;SDS011;2929;50.810;8.342;2023-05-16T11:07:23;2.93;;;0.93;;
5805;SDS011;2929;50.810;8.342;2023-05-16T11:10:03;9.50;;;1.90;;
5805;SDS011;2929;50.810;8.342;2023-05-16T11:12:35;8.67;;;1.27;;
5805;SDS011;2929;50.810;8.342;2023-05-16T11:15:17;6.00;;;1.40;;
5805;SDS011;2929;50.810;8.342;2023-05-16T11:17:47;3.23;;;0.97;;
5805;SDS011;2929;50.810;8.342;2023-05-16T11:20:28;7.30;;;1.93;;
5805;SDS011;2929;50.810;8.342;2023-05-16T11:25:51;2.27;;;1.10;;
5805;SDS011;2929;50.810;8.342;2023-05-16T11:28:20;7.43;;;1.10;;
5805;SDS011;2929;50.810;8.342;2023-05-16T11:30:49;4.93;;;1.30;;
5805;SDS011;2929;50.810;8.342;2023-05-16T11:33:21;5.13;;;1.33;;
5805;SDS011;2929;50.810;8.342;2023-05-16T11:36:02;11.60;;;3.00;;
5805;SDS011;2929;50.810;8.342;2023-05-16T11:38:30;7.07;;;1.00;;
5805;SDS011;2929;50.810;8.342;2023-05-16T11:41:02;4.83;;;1.60;;
5805;SDS011;2929;50.810;8.342;2023-05-16T11:43:36;7.03;;;1.20;;
5805;SDS011;2929;50.810;8.342;2023-05-16T11:46:04;9.07;;;1.60;;
5805;SDS011;2929;50.810;8.342;2023-05-16T11:48:33;8.90;;;1.73;;
5805;SDS011;2929;50.810;8.342;2023-05-16T11:51:01;3.90;;;1.67;;
5805;SDS011;2929;50.810;8.342;2023-05-16T11:53:28;5.70;;;1.30;;
5805;SDS011;2929;50.810;8.342;2023-05-16T11:55:55;4.13;;;1.20;;
5805;SDS011;2929;50.810;8.342;2023-05-16T11:58:24;5.10;;;1.40;;
5805;SDS011;2929;50.810;8.342;2023-05-16T12:00:52;2.43;;;1.07;;
5805;SDS011;2929;50.810;8.342;2023-05-16T12:03:20;5.30;;;1.17;;
5805;SDS011;2929;50.810;8.342;2023-05-16T12:05:50;8.77;;;1.33;;
5805;SDS011;2929;50.810;8.342;2023-05-16T12:08:18;4.80;;;1.27;;
5805;SDS011;2929;50.810;8.342;2023-05-16T12:10:47;3.20;;;1.30;;
5805;SDS011;2929;50.810;8.342;2023-05-16T12:13:15;4.33;;;1.53;;
5805;SDS011;2929;50.810;8.342;2023-05-16T12:15:43;8.23;;;1.40;;
5805;SDS011;2929;50.810;8.342;2023-05-16T12:18:11;5.67;;;1.17;;
5805;SDS011;2929;50.810;8.342;2023-05-16T12:20:38;6.63;;;1.00;;
5805;SDS011;2929;50.810;8.342;2023-05-16T12:23:10;3.30;;;1.00;;
5805;SDS011;2929;50.810;8.342;2023-05-16T12:25:38;6.03;;;1.80;;
5805;SDS011;2929;50.810;8.342;2023-05-16T12:28:11;4.10;;;1.17;;
5805;SDS011;2929;50.810;8.342;2023-05-16T12:30:39;8.10;;;1.50;;
5805;SDS011;2929;50.810;8.342;2023-05-16T12:33:08;5.47;;;1.17;;
5805;SDS011;2929;50.810;8.342;2023-05-16T12:35:37;4.87;;;0.83;;
5805;SDS011;2929;50.810;8.342;2023-05-16T12:38:05;4.90;;;1.10;;
5805;SDS011;2929;50.810;8.342;2023-05-16T12:40:34;3.73;;;0.93;;
5805;SDS011;2929;50.810;8.342;2023-05-16T12:43:03;1.40;;;1.13;;
5805;SDS011;2929;50.810;8.342;2023-05-16T12:45:33;2.90;;;0.90;;
5805;SDS011;2929;50.810;8.342;2023-05-16T12:48:03;5.17;;;0.93;;
5805;SDS011;2929;50.810;8.342;2023-05-16T12:50:31;4.63;;;1.13;;
5805;SDS011;2929;50.810;8.342;2023-05-16T12:52:59;6.77;;;1.40;;
5805;SDS011;2929;50.810;8.342;2023-05-16T12:55:26;6.20;;;1.10;;
5805;SDS011;2929;50.810;8.342;2023-05-16T12:57:55;5.07;;;1.10;;
5805;SDS011;2929;50.810;8.342;2023-05-16T13:00:22;3.40;;;1.17;;
5805;SDS011;2929;50.810;8.342;2023-05-16T13:02:50;1.80;;;0.80;;
5805;SDS011;2929;50.810;8.342;2023-05-16T13:05:17;9.13;;;1.30;;
5805;SDS011;2929;50.810;8.342;2023-05-16T13:07:46;2.73;;;0.80;;
5805;SDS011;2929;50.810;8.342;2023-05-16T13:10:15;3.20;;;1.10;;
5805;SDS011;2929;50.810;8.342;2023-05-16T13:12:43;3.33;;;0.80;;
5805;SDS011;2929;50.810;8.342;2023-05-16T13:15:12;6.10;;;1.20;;
5805;SDS011;2929;50.810;8.342;2023-05-16T13:17:40;3.07;;;1.00;;
5805;SDS011;2929;50.810;8.342;2023-05-16T13:20:09;3.53;;;1.10;;
5805;SDS011;2929;50.810;8.342;2023-05-16T13:22:39;3.50;;;1.67;;
5805;SDS011;2929;50.810;8.342;2023-05-16T13:25:06;6.13;;;1.23;;
5805;SDS011;2929;50.810;8.342;2023-05-16T13:27:34;4.03;;;1.13;;
5805;SDS011;2929;50.810;8.342;2023-05-16T13:30:02;3.03;;;1.13;;
5805;SDS011;2929;50.810;8.342;2023-05-16T13:32:31;6.20;;;1.20;;
5805;SDS011;2929;50.810;8.342;2023-05-16T13:34:58;1.57;;;1.17;;
5805;SDS011;2929;50.810;8.342;2023-05-16T13:37:25;2.13;;;0.80;;
5805;SDS011;2929;50.810;8.342;2023-05-16T13:39:52;1.67;;;0.83;;
5805;SDS011;2929;50.810;8.342;2023-05-16T13:42:20;10.33;;;1.90;;
5805;SDS011;2929;50.810;8.342;2023-05-16T13:44:47;3.40;;;1.00;;
5805;SDS011;2929;50.810;8.342;2023-05-16T13:47:14;4.53;;;0.90;;
5805;SDS011;2929;50.810;8.342;2023-05-16T13:49:43;4.03;;;1.00;;
5805;SDS011;2929;50.810;8.342;2023-05-16T13:52:10;2.03;;;1.00;;
5805;SDS011;2929;50.810;8.342;2023-05-16T13:54:37;6.20;;;1.23;;
5805;SDS011;2929;50.810;8.342;2023-05-16T13:57:05;9.97;;;1.50;;
5805;SDS011;2929;50.810;8.342;2023-05-16T13:59:32;4.50;;;1.10;;
5805;SDS011;2929;50.810;8.342;2023-05-16T14:01:59;2.83;;;1.10;;
5805;SDS011;2929;50.810;8.342;2023-05-16T14:04:27;1.77;;;1.00;;
5805;SDS011;2929;50.810;8.342;2023-05-16T14:06:55;3.53;;;1.10;;
5805;SDS011;2929;50.810;8.342;2023-05-16T14:09:22;1.83;;;1.10;;
5805;SDS011;2929;50.810;8.342;2023-05-16T14:11:50;3.10;;;1.10;;
5805;SDS011;2929;50.810;8.342;2023-05-16T14:14:17;1.47;;;0.90;;
5805;SDS011;2929;50.810;8.342;2023-05-16T14:16:44;4.63;;;1.00;;
5805;SDS011;2929;50.810;8.342;2023-05-16T14:19:11;7.80;;;1.10;;
5805;SDS011;2929;50.810;8.342;2023-05-16T14:21:38;7.40;;;1.27;;
5805;SDS011;2929;50.810;8.342;2023-05-16T14:24:07;1.10;;;1.00;;
5805;SDS011;2929;50.810;8.342;2023-05-16T14:26:34;2.00;;;1.20;;
5805;SDS011;2929;50.810;8.342;2023-05-16T14:29:01;3.60;;;1.50;;
5805;SDS011;2929;50.810;8.342;2023-05-16T14:31:28;2.20;;;1.10;;
5805;SDS011;2929;50.810;8.342;2023-05-16T14:33:56;3.43;;;1.03;;
5805;SDS011;2929;50.810;8.342;2023-05-16T14:36:23;2.30;;;1.10;;
5805;SDS011;2929;50.810;8.342;2023-05-16T14:38:50;4.43;;;1.10;;
5805;SDS011;2929;50.810;8.342;2023-05-16T14:41:19;2.87;;;0.90;;
5805;SDS011;2929;50.810;8.342;2023-05-16T14:43:46;4.60;;;1.30;;
5805;SDS011;2929;50.810;8.342;2023-05-16T14:46:17;5.97;;;1.50;;
5805;SDS011;2929;50.810;8.342;2023-05-16T14:48:44;3.70;;;1.30;;
5805;SDS011;2929;50.810;8.342;2023-05-16T14:51:11;7.90;;;1.70;;
5805;SDS011;2929;50.810;8.342;2023-05-16T14:53:38;2.87;;;1.07;;
5805;SDS011;2929;50.810;8.342;2023-05-16T14:56:05;2.33;;;1.17;;
5805;SDS011;2929;50.810;8.342;2023-05-16T14:58:33;3.20;;;1.20;;
5805;SDS011;2929;50.810;8.342;2023-05-16T15:01:01;3.87;;;1.17;;
5805;SDS011;2929;50.810;8.342;2023-05-16T15:03:28;2.77;;;1.00;;
5805;SDS011;2929;50.810;8.342;2023-05-16T15:05:57;6.47;;;2.33;;
5805;SDS011;2929;50.810;8.342;2023-05-16T15:08:24;4.57;;;1.00;;
5805;SDS011;2929;50.810;8.342;2023-05-16T15:10:51;3.40;;;1.00;;
5805;SDS011;2929;50.810;8.342;2023-05-16T15:13:18;7.20;;;1.20;;
5805;SDS011;2929;50.810;8.342;2023-05-16T15:15:46;1.20;;;1.10;;
5805;SDS011;2929;50.810;8.342;2023-05-16T15:18:13;3.00;;;0.97;;
5805;SDS011;2929;50.810;8.342;2023-05-16T15:20:40;9.37;;;3.00;;
5805;SDS011;2929;50.810;8.342;2023-05-16T15:23:07;2.80;;;1.30;;